Aérodrome :
LOGIN :

S'inscrire | Disclaimer

   EN    FR    IT 

 










Légende :    VFR   VFR Marginal   IFR   IFR Intensif   IFR Très Intensif
Visi : 
Plafond : 
>= 8 km
>= 3000ft
5 à 8 km
1000 à 3000 ft
1500m à 5 km
500 à 1000 ft
800 à 1500m
200 à 500 ft
< 800m
< 200 ft
Symboles :   Orages  Brouillard  Fortes neiges  Fortes précipitations  Vent > 20 kt
SIGMETs :   Divers  Orages  Givrage  Turbulence  Onde Orograph.  Cendres Volcan.






- Altitude de l'aérodrome : 26 ft


ETNT - Wittmundhaven AB

DERNIER METAR :
  • 201520Z 17006KT 0100 R26/0600N FG VV000 03/02 Q1017 RED RED

METARs EXPIRÉS :
  • 201455Z 18006KT 0300 R26/0600D FG VV000 03/03 Q1017 RED RED
  • 201440Z 17005KT 0700 R26/9999N FG SCT005 SCT030 04/04 Q1017 RED RED
  • 201435Z 18005KT 1400 R26/9999N BR SCT005 SCT030 05/03 Q1017 AMB AMB BECMG RED
  • 201420Z 17003KT 4500 BR SCT030 05/03 Q1017 GRN GRN BECMG RED
  • 201320Z 21003KT 9999 FEW030 07/04 Q1017 BLU+BLU+ BECMG RED

TAF COR TAF ETNT
Valide du 20 à 15h jusqu'au 21 à 00h UTC


201440Z 2015/2024 11004KT 0500 FG VV001
BECMG 2021/2022 VRB01KT 0500 FZFG VV001 BY ETGL



MET'MAP, la Météo Aéronautique d'un coup d'oeil ! - Copyright ORBIFLY Décembre 2007 - Disclaimer

ORBIFLY MET'MAP TEAM :

Programmation & Développement : Alexandra Zaïnal
Conception & Développement : Baudouin d'Aumeries
Co-Programmation & Développement : Marc-Olivier Méhu
Soutien technique & logistique : Manuel Goepfert

Contact : metmap@orbifly.com




SOURCES & CREDITS :

   NOAA